Time,TemperatureF,DewpointF,PressureIn,WindDirection,WindDirectionDegrees,WindSpeedMPH,WindSpeedGustMPH,Humidity,HourlyPrecipIn,Conditions,Clouds,dailyrainin,SolarRadiationWatts/m^2,SoftwareType,DateUTC
2013-09-06 00:04:00,66.6,65.7,30.13,NNE,33,0.0,0.0,97,0.00,,,0.00,0,Wunderground v.1.15,2013-09-06 05:04:00,
2013-09-06 00:09:00,66.6,65.7,30.12,NNE,33,0.0,0.0,97,0.00,,,0.00,0,Wunderground v.1.15,2013-09-06 05:09:00,
2013-09-06 00:19:00,66.4,65.5,30.13,NNE,33,0.0,0.0,97,0.00,,,0.00,0,Wunderground v.1.15,2013-09-06 05:19:00,
2013-09-06 00:24:00,66.3,65.4,30.13,NNE,33,0.0,0.0,97,0.00,,,0.00,0,Wunderground v.1.15,2013-09-06 05:24:00,
2013-09-06 00:34:00,66.2,65.3,30.13,NNE,33,0.0,0.0,97,0.00,,,0.00,0,Wunderground v.1.15,2013-09-06 05:34:00,
2013-09-06 00:39:00,66.1,65.5,30.13,NNE,33,0.0,0.0,98,0.00,,,0.00,0,Wunderground v.1.15,2013-09-06 05:39:00,
2013-09-06 00:49:00,66.1,65.5,30.13,NNE,33,0.0,0.0,98,0.00,,,0.00,0,Wunderground v.1.15,2013-09-06 05:49:00,
2013-09-06 00:54:00,66.0,65.4,30.13,NNE,33,0.0,0.0,98,0.00,,,0.00,0,Wunderground v.1.15,2013-09-06 05:54:00,
2013-09-06 01:04:00,66.0,65.4,30.13,NNE,33,0.0,0.0,98,0.00,,,0.00,0,Wunderground v.1.15,2013-09-06 06:04:00,
2013-09-06 01:14:00,65.7,65.1,30.12,NNE,33,0.0,0.0,98,0.00,,,0.00,0,Wunderground v.1.15,2013-09-06 06:14:00,
2013-09-06 01:19:00,65.7,65.1,30.12,NNE,33,0.0,0.0,98,0.00,,,0.00,0,Wunderground v.1.15,2013-09-06 06:19:00,
2013-09-06 01:29:00,65.6,65.0,30.12,NNE,33,0.0,0.0,98,0.00,,,0.00,0,Wunderground v.1.15,2013-09-06 06:29:00,
2013-09-06 01:34:00,65.5,64.9,30.12,NNE,33,0.0,0.0,98,0.00,,,0.00,0,Wunderground v.1.15,2013-09-06 06:34:00,
2013-09-06 01:44:00,65.2,64.6,30.12,NNE,33,0.0,0.0,98,0.00,,,0.00,0,Wunderground v.1.15,2013-09-06 06:44:00,
2013-09-06 01:49:00,65.2,64.6,30.12,NNE,33,0.0,0.0,98,0.00,,,0.00,0,Wunderground v.1.15,2013-09-06 06:49:00,
2013-09-06 01:59:00,65.1,64.5,30.12,NNE,33,0.0,0.0,98,0.00,,,0.00,0,Wunderground v.1.15,2013-09-06 06:59:00,
2013-09-06 02:08:00,65.2,64.6,30.11,NNE,33,0.0,0.0,98,0.00,,,0.00,0,Wunderground v.1.15,2013-09-06 07:08:00,
2013-09-06 02:14:00,65.1,64.5,30.12,NNE,33,0.0,0.0,98,0.00,,,0.00,0,Wunderground v.1.15,2013-09-06 07:14:00,
2013-09-06 02:24:00,65.0,64.4,30.11,NNE,33,0.0,0.0,98,0.00,,,0.00,0,Wunderground v.1.15,2013-09-06 07:24:00,
2013-09-06 02:33:00,64.9,64.3,30.11,NNE,33,0.0,0.0,98,0.00,,,0.00,0,Wunderground v.1.15,2013-09-06 07:33:00,
2013-09-06 02:39:00,64.8,64.2,30.11,NNE,33,0.0,0.0,98,0.00,,,0.00,0,Wunderground v.1.15,2013-09-06 07:39:00,
2013-09-06 02:49:00,64.7,64.1,30.11,NNE,33,0.0,0.0,98,0.00,,,0.00,0,Wunderground v.1.15,2013-09-06 07:49:00,
2013-09-06 02:58:00,64.7,64.1,30.11,NNE,33,0.0,0.0,98,0.00,,,0.00,0,Wunderground v.1.15,2013-09-06 07:58:00,
2013-09-06 03:04:00,64.7,64.1,30.11,NNE,33,0.0,0.0,98,0.00,,,0.00,0,Wunderground v.1.15,2013-09-06 08:04:00,
2013-09-06 03:14:00,64.8,64.2,30.11,NNE,33,0.0,1.0,98,0.00,,,0.00,0,Wunderground v.1.15,2013-09-06 08:14:00,
2013-09-06 03:24:00,65.1,64.5,30.11,NNE,33,0.0,0.0,98,0.00,,,0.00,0,Wunderground v.1.15,2013-09-06 08:24:00,
2013-09-06 03:33:00,65.1,64.5,30.11,NNE,33,1.0,1.0,98,0.00,,,0.00,0,Wunderground v.1.15,2013-09-06 08:33:00,
2013-09-06 03:39:00,65.1,64.5,30.11,NNE,32,1.0,3.0,98,0.00,,,0.00,0,Wunderground v.1.15,2013-09-06 08:39:00,
2013-09-06 03:49:00,65.3,65.0,30.11,NNE,17,2.0,2.0,99,0.00,,,0.00,0,Wunderground v.1.15,2013-09-06 08:49:00,
2013-09-06 03:54:00,65.3,64.7,30.11,ENE,63,1.0,1.0,98,0.00,,,0.00,0,Wunderground v.1.15,2013-09-06 08:54:00,
2013-09-06 04:03:00,65.2,64.6,30.11,ENE,70,0.0,1.0,98,0.00,,,0.00,0,Wunderground v.1.15,2013-09-06 09:03:00,
2013-09-06 04:09:00,65.3,64.7,30.11,NE,41,0.0,1.0,98,0.00,,,0.00,0,Wunderground v.1.15,2013-09-06 09:09:00,
2013-09-06 04:19:00,65.3,64.7,30.11,NE,41,0.0,1.0,98,0.00,,,0.00,0,Wunderground v.1.15,2013-09-06 09:19:00,
2013-09-06 04:29:00,65.5,65.2,30.11,NNE,24,1.0,2.0,99,0.00,,,0.00,0,Wunderground v.1.15,2013-09-06 09:29:00,
2013-09-06 04:34:00,65.9,65.3,30.11,NE,40,2.0,4.0,98,0.00,,,0.00,0,Wunderground v.1.15,2013-09-06 09:34:00,
2013-09-06 04:44:00,66.2,65.9,30.11,NNE,27,3.0,3.0,99,0.00,,,0.00,0,Wunderground v.1.15,2013-09-06 09:44:00,
2013-09-06 04:49:00,66.3,66.0,30.11,NE,41,2.0,3.0,99,0.00,,,0.00,0,Wunderground v.1.15,2013-09-06 09:49:00,
2013-09-06 04:59:00,65.7,65.1,30.11,NNE,30,0.0,2.0,98,0.00,,,0.00,0,Wunderground v.1.15,2013-09-06 09:59:00,
2013-09-06 05:09:00,65.5,64.9,30.11,NNE,30,0.0,1.0,98,0.00,,,0.00,0,Wunderground v.1.15,2013-09-06 10:09:00,
2013-09-06 05:14:00,65.4,64.8,30.11,NNE,31,0.0,0.0,98,0.00,,,0.00,0,Wunderground v.1.15,2013-09-06 10:14:00,
2013-09-06 05:24:00,65.0,64.4,30.11,NNE,31,1.0,1.0,98,0.00,,,0.00,0,Wunderground v.1.15,2013-09-06 10:24:00,
2013-09-06 05:29:00,65.0,64.4,30.11,NNE,31,1.0,2.0,98,0.00,,,0.00,0,Wunderground v.1.15,2013-09-06 10:29:00,
2013-09-06 05:39:00,65.0,64.4,30.12,NE,44,1.0,2.0,98,0.00,,,0.00,0,Wunderground v.1.15,2013-09-06 10:39:00,
2013-09-06 05:44:00,64.8,64.2,30.12,NE,44,0.0,0.0,98,0.00,,,0.00,0,Wunderground v.1.15,2013-09-06 10:44:00,
2013-09-06 05:53:00,64.4,63.8,30.13,NE,44,0.0,0.0,98,0.00,,,0.00,0,Wunderground v.1.15,2013-09-06 10:53:00,
2013-09-06 05:59:00,64.4,63.8,30.13,NE,44,0.0,0.0,98,0.00,,,0.00,0,Wunderground v.1.15,2013-09-06 10:59:00,
2013-09-06 06:09:00,64.1,63.5,30.13,NE,44,0.0,0.0,98,0.00,,,0.00,0,Wunderground v.1.15,2013-09-06 11:09:00,
2013-09-06 06:19:00,63.9,63.3,30.13,NE,44,0.0,0.0,98,0.00,,,0.00,0,Wunderground v.1.15,2013-09-06 11:19:00,
2013-09-06 06:29:00,64.0,63.4,30.13,NE,44,0.0,0.0,98,0.00,,,0.00,9,Wunderground v.1.15,2013-09-06 11:29:00,
2013-09-06 06:34:00,63.9,63.3,30.13,NE,44,0.0,0.0,98,0.00,,,0.00,12,Wunderground v.1.15,2013-09-06 11:34:00,
2013-09-06 06:43:00,64.0,63.4,30.13,NE,40,1.0,1.0,98,0.00,,,0.00,25,Wunderground v.1.15,2013-09-06 11:43:00,
2013-09-06 06:49:00,64.2,63.9,30.13,NE,40,1.0,1.0,99,0.00,,,0.01,35,Wunderground v.1.15,2013-09-06 11:49:00,
2013-09-06 06:59:00,64.4,64.1,30.14,NE,40,0.0,1.0,99,0.00,,,0.01,58,Wunderground v.1.15,2013-09-06 11:59:00,
2013-09-06 07:08:00,64.9,64.6,30.14,ENE,62,0.0,0.0,99,0.00,,,0.01,86,Wunderground v.1.15,2013-09-06 12:08:00,
2013-09-06 07:14:00,65.2,64.9,30.14,ENE,71,1.0,1.0,99,0.00,,,0.01,102,Wunderground v.1.15,2013-09-06 12:14:00,
2013-09-06 07:24:00,66.1,65.8,30.14,East,79,1.0,1.0,99,0.00,,,0.01,137,Wunderground v.1.15,2013-09-06 12:24:00,
2013-09-06 07:34:00,67.2,66.0,30.14,ENE,58,1.0,2.0,96,0.00,,,0.01,171,Wunderground v.1.15,2013-09-06 12:34:00,
2013-09-06 07:44:00,68.0,65.9,30.14,NNE,26,1.0,2.0,93,0.00,,,0.01,204,Wunderground v.1.15,2013-09-06 12:44:00,
2013-09-06 07:54:00,68.7,66.0,30.14,North,355,2.0,2.0,91,0.00,,,0.01,239,Wunderground v.1.15,2013-09-06 12:54:00,
2013-09-06 07:59:00,69.1,66.0,30.14,NE,45,2.0,2.0,90,0.00,,,0.01,257,Wunderground v.1.15,2013-09-06 12:59:00,
2013-09-06 08:09:00,69.6,66.2,30.14,NE,49,3.0,3.0,89,0.00,,,0.01,292,Wunderground v.1.15,2013-09-06 13:09:00,
2013-09-06 08:14:00,69.8,66.1,30.14,NNE,14,3.0,3.0,88,0.00,,,0.01,316,Wunderground v.1.15,2013-09-06 13:14:00,
2013-09-06 08:24:00,70.1,66.0,30.14,NNE,16,2.0,5.0,87,0.00,,,0.01,348,Wunderground v.1.15,2013-09-06 13:24:00,
2013-09-06 08:34:00,70.7,67.0,30.14,NE,56,3.0,5.0,88,0.00,,,0.01,381,Wunderground v.1.15,2013-09-06 13:34:00,
2013-09-06 08:44:00,71.2,66.5,30.14,North,5,3.0,4.0,85,0.00,,,0.01,420,Wunderground v.1.15,2013-09-06 13:44:00,
2013-09-06 08:49:00,71.6,67.2,30.14,NE,38,3.0,4.0,86,0.00,,,0.01,425,Wunderground v.1.15,2013-09-06 13:49:00,
2013-09-06 08:59:00,72.3,67.5,30.14,NE,36,3.0,3.0,85,0.00,,,0.01,461,Wunderground v.1.15,2013-09-06 13:59:00,
2013-09-06 09:04:00,72.7,67.6,30.14,NE,49,3.0,3.0,84,0.00,,,0.01,476,Wunderground v.1.15,2013-09-06 14:04:00,
2013-09-06 09:14:00,72.9,67.1,30.14,North,5,3.0,5.0,82,0.00,,,0.01,506,Wunderground v.1.15,2013-09-06 14:14:00,
2013-09-06 09:19:00,73.0,67.2,30.15,ENE,63,4.0,5.0,82,0.00,,,0.01,522,Wunderground v.1.15,2013-09-06 14:19:00,
2013-09-06 09:29:00,73.9,68.8,30.15,NNE,29,3.0,4.0,84,0.00,,,0.01,552,Wunderground v.1.15,2013-09-06 14:29:00,
2013-09-06 09:34:00,74.1,67.9,30.15,NNE,26,3.0,4.0,81,0.00,,,0.01,568,Wunderground v.1.15,2013-09-06 14:34:00,
2013-09-06 09:44:00,74.8,67.8,30.15,NE,40,3.0,6.0,79,0.00,,,0.01,594,Wunderground v.1.15,2013-09-06 14:44:00,
2013-09-06 09:49:00,75.0,68.4,30.15,East,90,2.0,6.0,80,0.00,,,0.01,610,Wunderground v.1.15,2013-09-06 14:49:00,
2013-09-06 09:59:00,75.5,68.2,30.15,NE,46,3.0,6.0,78,0.00,,,0.01,633,Wunderground v.1.15,2013-09-06 14:59:00,
2013-09-06 10:09:00,76.5,68.0,30.15,ENE,78,2.0,2.0,75,0.00,,,0.01,659,Wunderground v.1.15,2013-09-06 15:09:00,
2013-09-06 10:14:00,76.8,68.3,30.15,East,84,2.0,2.0,75,0.00,,,0.01,671,Wunderground v.1.15,2013-09-06 15:14:00,
2013-09-06 10:24:00,77.3,68.4,30.15,East,88,3.0,5.0,74,0.00,,,0.01,698,Wunderground v.1.15,2013-09-06 15:24:00,
2013-09-06 10:34:00,77.3,68.0,30.15,ESE,107,2.0,2.0,73,0.00,,,0.01,721,Wunderground v.1.15,2013-09-06 15:34:00,
2013-09-06 10:39:00,77.7,69.1,30.15,ESE,109,2.0,2.0,75,0.00,,,0.01,729,Wunderground v.1.15,2013-09-06 15:39:00,
2013-09-06 10:49:00,78.0,68.6,30.15,East,80,2.0,2.0,73,0.00,,,0.01,751,Wunderground v.1.15,2013-09-06 15:49:00,
2013-09-06 10:59:00,78.4,69.4,30.15,South,180,2.0,4.0,74,0.00,,,0.01,766,Wunderground v.1.15,2013-09-06 15:59:00,
2013-09-06 11:04:00,78.2,68.0,30.16,SE,141,3.0,3.0,71,0.00,,,0.01,775,Wunderground v.1.15,2013-09-06 16:04:00,
2013-09-06 11:14:00,78.4,68.2,30.15,ESE,114,2.0,2.0,71,0.00,,,0.01,795,Wunderground v.1.15,2013-09-06 16:14:00,
2013-09-06 11:23:00,78.7,68.9,30.15,NE,47,1.0,1.0,72,0.00,,,0.01,807,Wunderground v.1.15,2013-09-06 16:23:00,
2013-09-06 11:29:00,78.8,68.2,30.15,North,350,1.0,3.0,70,0.00,,,0.01,816,Wunderground v.1.15,2013-09-06 16:29:00,
2013-09-06 11:39:00,79.2,69.4,30.15,ENE,73,1.0,2.0,72,0.00,,,0.01,828,Wunderground v.1.15,2013-09-06 16:39:00,
2013-09-06 11:49:00,80.2,71.2,30.14,NNE,24,1.0,2.0,74,0.00,,,0.01,838,Wunderground v.1.15,2013-09-06 16:49:00,
2013-09-06 11:54:00,80.2,68.2,30.14,ENE,78,1.0,1.0,67,0.00,,,0.01,846,Wunderground v.1.15,2013-09-06 16:54:00,
2013-09-06 12:04:00,81.0,69.9,30.14,ESE,117,2.0,2.0,69,0.00,,,0.01,849,Wunderground v.1.15,2013-09-06 17:04:00,
2013-09-06 12:09:00,80.7,70.0,30.14,East,83,1.0,2.0,70,0.00,,,0.01,854,Wunderground v.1.15,2013-09-06 17:09:00,
2013-09-06 12:19:00,81.1,68.7,30.13,SSE,148,0.0,1.0,66,0.00,,,0.01,860,Wunderground v.1.15,2013-09-06 17:19:00,
2013-09-06 12:24:00,81.4,69.8,30.13,ENE,76,1.0,1.0,68,0.00,,,0.01,865,Wunderground v.1.15,2013-09-06 17:24:00,
2013-09-06 12:34:00,82.0,69.5,30.13,SE,126,1.0,1.0,66,0.00,,,0.01,874,Wunderground v.1.15,2013-09-06 17:34:00,
2013-09-06 12:44:00,82.4,66.1,30.12,ESE,105,1.0,1.0,58,0.00,,,0.01,868,Wunderground v.1.15,2013-09-06 17:44:00,
2013-09-06 12:54:00,82.9,69.9,30.12,ESE,120,1.0,2.0,65,0.00,,,0.01,860,Wunderground v.1.15,2013-09-06 17:54:00,
2013-09-06 13:03:00,83.0,68.2,30.12,ENE,57,2.0,3.0,61,0.00,,,0.01,858,Wunderground v.1.15,2013-09-06 18:03:00,
2013-09-06 13:09:00,83.2,67.9,30.12,NE,48,2.0,3.0,60,0.00,,,0.01,851,Wunderground v.1.15,2013-09-06 18:09:00,
2013-09-06 13:19:00,83.3,68.4,30.12,ENE,69,2.0,2.0,61,0.00,,,0.01,842,Wunderground v.1.15,2013-09-06 18:19:00,
2013-09-06 13:29:00,83.8,69.9,30.11,SE,134,2.0,2.0,63,0.00,,,0.01,835,Wunderground v.1.15,2013-09-06 18:29:00,
2013-09-06 13:34:00,84.3,71.7,30.11,East,83,1.0,1.0,66,0.00,,,0.01,833,Wunderground v.1.15,2013-09-06 18:34:00,
2013-09-06 13:44:00,84.0,68.1,30.11,SSE,162,1.0,4.0,59,0.00,,,0.01,838,Wunderground v.1.15,2013-09-06 18:44:00,
2013-09-06 13:54:00,84.1,70.1,30.11,NNE,28,1.0,3.0,63,0.00,,,0.01,826,Wunderground v.1.15,2013-09-06 18:54:00,
2013-09-06 13:59:00,83.9,68.0,30.10,NE,45,2.0,3.0,59,0.00,,,0.01,816,Wunderground v.1.15,2013-09-06 18:59:00,
2013-09-06 14:09:00,84.0,69.1,30.10,ESE,108,2.0,2.0,61,0.00,,,0.01,802,Wunderground v.1.15,2013-09-06 19:09:00,
2013-09-06 14:18:00,85.0,70.0,30.09,SSW,200,3.0,3.0,61,0.00,,,0.01,789,Wunderground v.1.15,2013-09-06 19:18:00,
2013-09-06 14:24:00,84.6,68.7,30.09,SSE,165,3.0,3.0,59,0.00,,,0.01,798,Wunderground v.1.15,2013-09-06 19:24:00,
2013-09-06 14:34:00,85.0,68.6,30.09,SSW,200,1.0,1.0,58,0.00,,,0.01,759,Wunderground v.1.15,2013-09-06 19:34:00,
2013-09-06 14:43:00,85.7,69.7,30.09,SSW,200,2.0,2.0,59,0.00,,,0.01,733,Wunderground v.1.15,2013-09-06 19:43:00,
2013-09-06 14:49:00,85.2,69.7,30.09,ESE,107,2.0,2.0,60,0.00,,,0.01,731,Wunderground v.1.15,2013-09-06 19:49:00,
2013-09-06 14:59:00,84.9,69.5,30.08,ESE,118,3.0,4.0,60,0.00,,,0.01,700,Wunderground v.1.15,2013-09-06 19:59:00,
2013-09-06 15:08:00,85.1,68.7,30.08,SSE,165,2.0,2.0,58,0.00,,,0.01,682,Wunderground v.1.15,2013-09-06 20:08:00,
2013-09-06 15:14:00,84.9,68.0,30.08,ESE,107,2.0,2.0,57,0.00,,,0.01,696,Wunderground v.1.15,2013-09-06 20:14:00,
2013-09-06 15:24:00,85.1,69.7,30.08,ESE,107,0.0,0.0,60,0.00,,,0.01,647,Wunderground v.1.15,2013-09-06 20:24:00,
2013-09-06 15:29:00,85.7,73.5,30.08,ESE,107,0.0,1.0,67,0.00,,,0.01,670,Wunderground v.1.15,2013-09-06 20:29:00,
2013-09-06 15:39:00,84.5,70.5,30.07,ESE,105,0.0,1.0,63,0.00,,,0.01,621,Wunderground v.1.15,2013-09-06 20:39:00,
2013-09-06 15:44:00,84.4,70.0,30.07,ENE,75,1.0,1.0,62,0.00,,,0.01,575,Wunderground v.1.15,2013-09-06 20:44:00,
2013-09-06 15:54:00,84.9,71.8,30.07,ENE,59,1.0,1.0,65,0.00,,,0.01,578,Wunderground v.1.15,2013-09-06 20:54:00,
2013-09-06 15:59:00,84.8,69.9,30.07,NE,34,2.0,2.0,61,0.00,,,0.01,545,Wunderground v.1.15,2013-09-06 20:59:00,
2013-09-06 16:09:00,85.1,70.1,30.07,NE,42,1.0,3.0,61,0.00,,,0.01,540,Wunderground v.1.15,2013-09-06 21:09:00,
2013-09-06 16:14:00,84.8,70.3,30.06,North,5,2.0,2.0,62,0.00,,,0.01,524,Wunderground v.1.15,2013-09-06 21:14:00,
2013-09-06 16:24:00,84.3,68.9,30.06,SE,146,2.0,2.0,60,0.00,,,0.01,473,Wunderground v.1.15,2013-09-06 21:24:00,
2013-09-06 16:29:00,84.5,69.6,30.06,East,98,1.0,2.0,61,0.00,,,0.01,439,Wunderground v.1.15,2013-09-06 21:29:00,
2013-09-06 16:39:00,83.7,68.8,30.06,NE,46,1.0,3.0,61,0.00,,,0.01,118,Wunderground v.1.15,2013-09-06 21:39:00,
2013-09-06 16:49:00,82.3,71.5,30.06,NE,47,0.0,1.0,70,0.00,,,0.01,374,Wunderground v.1.15,2013-09-06 21:49:00,
2013-09-06 16:59:00,83.1,69.2,30.06,NE,46,0.0,0.0,63,0.00,,,0.01,346,Wunderground v.1.15,2013-09-06 21:59:00,
2013-09-06 17:09:00,82.4,70.8,30.06,NE,46,0.0,0.0,68,0.00,,,0.01,297,Wunderground v.1.15,2013-09-06 22:09:00,
2013-09-06 17:19:00,82.3,70.2,30.06,NE,47,0.0,1.0,67,0.00,,,0.01,271,Wunderground v.1.15,2013-09-06 22:19:00,
2013-09-06 17:24:00,82.3,69.8,30.06,NE,46,1.0,2.0,66,0.00,,,0.01,260,Wunderground v.1.15,2013-09-06 22:24:00,
2013-09-06 17:34:00,82.1,70.9,30.06,ENE,59,1.0,1.0,69,0.00,,,0.01,216,Wunderground v.1.15,2013-09-06 22:34:00,
2013-09-06 17:39:00,81.7,71.4,30.06,ENE,59,1.0,1.0,71,0.00,,,0.01,199,Wunderground v.1.15,2013-09-06 22:39:00,
2013-09-06 17:49:00,81.3,72.2,30.06,NE,42,1.0,1.0,74,0.00,,,0.01,167,Wunderground v.1.15,2013-09-06 22:49:00,
2013-09-06 17:54:00,81.0,72.3,30.06,NNE,20,0.0,0.0,75,0.00,,,0.01,148,Wunderground v.1.15,2013-09-06 22:54:00,
2013-09-06 18:04:00,80.2,71.9,30.05,NNE,20,0.0,0.0,76,0.00,,,0.01,113,Wunderground v.1.15,2013-09-06 23:04:00,
2013-09-06 18:09:00,79.8,71.6,30.05,NNE,20,0.0,0.0,76,0.00,,,0.01,97,Wunderground v.1.15,2013-09-06 23:09:00,
2013-09-06 18:19:00,78.9,72.2,30.05,NNE,20,0.0,0.0,80,0.00,,,0.01,42,Wunderground v.1.15,2013-09-06 23:19:00,
2013-09-06 18:28:00,78.3,72.0,30.05,NNE,20,0.0,0.0,81,0.00,,,0.01,35,Wunderground v.1.15,2013-09-06 23:28:00,
2013-09-06 18:34:00,78.0,71.7,30.05,NNE,20,0.0,0.0,81,0.00,,,0.01,32,Wunderground v.1.15,2013-09-06 23:34:00,
2013-09-06 18:43:00,77.4,71.8,30.06,NNE,20,0.0,0.0,83,0.00,,,0.01,23,Wunderground v.1.15,2013-09-06 23:43:00,
2013-09-06 18:49:00,76.8,71.6,30.05,NNE,20,0.0,0.0,84,0.00,,,0.01,18,Wunderground v.1.15,2013-09-06 23:49:00,
2013-09-06 18:58:00,76.1,70.9,30.05,NNE,20,0.0,0.0,84,0.00,,,0.01,9,Wunderground v.1.15,2013-09-06 23:58:00,
2013-09-06 19:04:00,75.6,71.1,30.05,NNE,20,0.0,0.0,86,0.00,,,0.01,5,Wunderground v.1.15,2013-09-07 00:04:00,
2013-09-06 19:13:00,74.9,70.4,30.05,NNE,20,0.0,0.0,86,0.00,,,0.01,0,Wunderground v.1.15,2013-09-07 00:13:00,
2013-09-06 19:19:00,74.5,70.4,30.05,NNE,20,0.0,0.0,87,0.00,,,0.01,0,Wunderground v.1.15,2013-09-07 00:19:00,
2013-09-06 19:29:00,73.6,70.5,30.05,NNE,20,0.0,0.0,90,0.00,,,0.01,0,Wunderground v.1.15,2013-09-07 00:29:00,
2013-09-06 19:39:00,73.1,70.3,30.05,NNE,20,0.0,0.0,91,0.00,,,0.01,0,Wunderground v.1.15,2013-09-07 00:39:00,
2013-09-06 19:44:00,72.9,70.1,30.05,NNE,20,0.0,0.0,91,0.00,,,0.01,0,Wunderground v.1.15,2013-09-07 00:44:00,
2013-09-06 19:49:00,72.7,70.2,30.06,NNE,20,0.0,0.0,92,0.00,,,0.01,0,Wunderground v.1.15,2013-09-07 00:49:00,
2013-09-06 19:58:00,72.2,69.7,30.06,NNE,20,0.0,0.0,92,0.00,,,0.01,0,Wunderground v.1.15,2013-09-07 00:58:00,
2013-09-06 20:04:00,72.1,70.0,30.06,NNE,20,0.0,0.0,93,0.00,,,0.01,0,Wunderground v.1.15,2013-09-07 01:04:00,
2013-09-06 20:13:00,71.7,69.6,30.06,NNE,20,0.0,0.0,93,0.00,,,0.01,0,Wunderground v.1.15,2013-09-07 01:13:00,
2013-09-06 20:19:00,71.6,69.5,30.06,NNE,20,0.0,0.0,93,0.00,,,0.01,0,Wunderground v.1.15,2013-09-07 01:19:00,
2013-09-06 20:29:00,71.3,69.2,30.07,NNE,20,0.0,0.0,93,0.00,,,0.01,0,Wunderground v.1.15,2013-09-07 01:29:00,
2013-09-06 20:39:00,71.1,69.3,30.07,NNE,20,0.0,0.0,94,0.00,,,0.01,0,Wunderground v.1.15,2013-09-07 01:39:00,
2013-09-06 20:49:00,70.9,69.1,30.08,NNE,20,0.0,0.0,94,0.00,,,0.01,0,Wunderground v.1.15,2013-09-07 01:49:00,
2013-09-06 20:59:00,70.5,68.7,30.08,NNE,20,0.0,0.0,94,0.00,,,0.01,0,Wunderground v.1.15,2013-09-07 01:59:00,
2013-09-06 21:04:00,70.5,68.4,30.08,NNE,20,0.0,0.0,93,0.00,,,0.01,0,Wunderground v.1.15,2013-09-07 02:04:00,
2013-09-06 21:14:00,70.3,68.2,30.08,NNE,20,0.0,0.0,93,0.00,,,0.01,0,Wunderground v.1.15,2013-09-07 02:14:00,
2013-09-06 21:24:00,70.1,68.0,30.08,NNE,20,0.0,0.0,93,0.00,,,0.01,0,Wunderground v.1.15,2013-09-07 02:24:00,
2013-09-06 21:34:00,69.9,67.8,30.08,NNE,20,0.0,0.0,93,0.00,,,0.01,0,Wunderground v.1.15,2013-09-07 02:34:00,
2013-09-06 21:44:00,69.8,67.7,30.08,NNE,20,0.0,0.0,93,0.00,,,0.01,0,Wunderground v.1.15,2013-09-07 02:44:00,
2013-09-06 21:49:00,69.5,67.7,30.08,NNE,20,0.0,0.0,94,0.00,,,0.01,0,Wunderground v.1.15,2013-09-07 02:49:00,
2013-09-06 21:58:00,69.4,67.6,30.08,NNE,20,0.0,0.0,94,0.00,,,0.01,0,Wunderground v.1.15,2013-09-07 02:58:00,
2013-09-06 22:04:00,69.4,67.6,30.08,NNE,20,0.0,0.0,94,0.00,,,0.01,0,Wunderground v.1.15,2013-09-07 03:04:00,
2013-09-06 22:14:00,69.1,67.3,30.08,NNE,20,0.0,0.0,94,0.00,,,0.01,0,Wunderground v.1.15,2013-09-07 03:14:00,
2013-09-06 22:24:00,69.0,67.2,30.08,NNE,20,0.0,0.0,94,0.00,,,0.01,0,Wunderground v.1.15,2013-09-07 03:24:00,
2013-09-06 22:33:00,68.7,66.9,30.07,NNE,20,0.0,0.0,94,0.00,,,0.01,0,Wunderground v.1.15,2013-09-07 03:33:00,
2013-09-06 22:39:00,68.7,66.9,30.07,NNE,20,0.0,0.0,94,0.00,,,0.01,0,Wunderground v.1.15,2013-09-07 03:39:00,
2013-09-06 22:49:00,68.6,66.8,30.08,NNE,20,0.0,0.0,94,0.00,,,0.01,0,Wunderground v.1.15,2013-09-07 03:49:00,
2013-09-06 22:58:00,68.5,66.7,30.08,NNE,20,0.0,0.0,94,0.00,,,0.01,0,Wunderground v.1.15,2013-09-07 03:58:00,
2013-09-06 23:04:00,68.3,66.8,30.08,NNE,20,0.0,0.0,95,0.00,,,0.01,0,Wunderground v.1.15,2013-09-07 04:04:00,
2013-09-06 23:09:00,68.3,66.8,30.08,NNE,20,0.0,0.0,95,0.00,,,0.01,0,Wunderground v.1.15,2013-09-07 04:09:00,
2013-09-06 23:14:00,68.3,66.8,30.08,NNE,20,0.0,0.0,95,0.00,,,0.01,0,Wunderground v.1.15,2013-09-07 04:14:00,
2013-09-06 23:19:00,68.2,66.7,30.08,NNE,20,0.0,0.0,95,0.00,,,0.01,0,Wunderground v.1.15,2013-09-07 04:19:00,
2013-09-06 23:24:00,68.1,66.6,30.08,NNE,20,0.0,0.0,95,0.00,,,0.01,0,Wunderground v.1.15,2013-09-07 04:24:00,
2013-09-06 23:34:00,68.0,66.5,30.08,NNE,20,0.0,0.0,95,0.00,,,0.01,0,Wunderground v.1.15,2013-09-07 04:34:00,
2013-09-06 23:39:00,68.1,66.6,30.08,NNE,20,0.0,0.0,95,0.00,,,0.01,0,Wunderground v.1.15,2013-09-07 04:39:00,
2013-09-06 23:44:00,67.9,66.4,30.08,NNE,20,0.0,0.0,95,0.00,,,0.01,0,Wunderground v.1.15,2013-09-07 04:44:00,
2013-09-06 23:54:00,67.9,66.4,30.08,NNE,20,0.0,0.0,95,0.00,,,0.01,0,Wunderground v.1.15,2013-09-07 04:54:00,
2013-09-06 23:58:00,67.9,66.4,30.08,NNE,20,0.0,0.0,95,0.00,,,0.01,0,Wunderground v.1.15,2013-09-07 04:58:00,